Time,TemperatureF,DewpointF,PressureIn,WindDirection,WindDirectionDegrees,WindSpeedMPH,WindSpeedGustMPH,Humidity,HourlyPrecipIn,Conditions,Clouds,dailyrainin,SoftwareType,DateUTC
2015-05-29 00:03:00,80.6,41.6,29.80,NE,53,1.0,3.0,25,0.00,,SCT250,0.00,VWS V15.00,2015-05-29 07:03:00,
2015-05-29 00:08:00,80.2,42.2,29.80,ENE,71,1.0,4.0,26,0.00,,SCT250,0.00,VWS V15.00,2015-05-29 07:08:00,
2015-05-29 00:13:00,79.4,41.6,29.80,NNW,345,0.0,4.0,26,0.00,,SCT250,0.00,VWS V15.00,2015-05-29 07:13:00,
2015-05-29 00:18:00,79.1,41.3,29.80,NNE,24,0.0,4.0,26,0.00,,SCT250,0.00,VWS V15.00,2015-05-29 07:18:00,
2015-05-29 00:23:00,79.1,41.3,29.80,NE,39,1.0,4.0,26,0.00,,SCT250,0.00,VWS V15.00,2015-05-29 07:23:00,
2015-05-29 00:28:00,79.1,41.3,29.79,ENE,70,0.0,4.0,26,0.00,,SCT250,0.00,VWS V15.00,2015-05-29 07:28:00,
2015-05-29 00:33:00,78.9,41.1,29.79,NE,51,0.0,2.0,26,0.00,,SCT250,0.00,VWS V15.00,2015-05-29 07:33:00,
2015-05-29 00:38:00,78.8,41.0,29.79,NE,52,1.0,2.0,26,0.00,,SCT250,0.00,VWS V15.00,2015-05-29 07:38:00,
2015-05-29 00:43:00,78.7,41.0,29.80,ENE,60,0.0,2.0,26,0.00,,SCT250,0.00,VWS V15.00,2015-05-29 07:43:00,
2015-05-29 00:48:00,78.5,41.8,29.80,NE,46,0.0,2.0,27,0.00,,SCT250,0.00,VWS V15.00,2015-05-29 07:48:00,
2015-05-29 00:53:00,78.1,41.4,29.80,NE,47,0.0,2.0,27,0.00,,SCT250,0.00,VWS V15.00,2015-05-29 07:53:00,
2015-05-29 00:58:00,77.7,41.1,29.80,NE,45,0.0,2.0,27,0.00,,SCT250,0.00,VWS V15.00,2015-05-29 07:58:00,
2015-05-29 01:03:00,77.5,40.9,29.80,NE,56,0.0,1.0,27,0.00,,SCT250,0.00,VWS V15.00,2015-05-29 08:03:00,
2015-05-29 01:08:00,77.4,40.8,29.80,NE,56,0.0,1.0,27,0.00,,SCT250,0.00,VWS V15.00,2015-05-29 08:08:00,
2015-05-29 01:13:00,76.9,41.3,29.80,NE,55,0.0,1.0,28,0.00,,SCT250,0.00,VWS V15.00,2015-05-29 08:13:00,
2015-05-29 01:18:00,76.4,41.8,29.80,NE,55,0.0,1.0,29,0.00,,SCT250,0.00,VWS V15.00,2015-05-29 08:18:00,
2015-05-29 01:23:00,76.0,41.5,29.80,NE,55,0.0,1.0,29,0.00,,SCT250,0.00,VWS V15.00,2015-05-29 08:23:00,
2015-05-29 01:28:00,75.8,40.4,29.80,NE,56,0.0,1.0,28,0.00,,SCT250,0.00,VWS V15.00,2015-05-29 08:28:00,
2015-05-29 01:33:00,76.2,39.8,29.80,NNW,343,0.0,0.0,27,0.00,,SCT250,0.00,VWS V15.00,2015-05-29 08:33:00,
2015-05-29 01:38:00,76.4,40.0,29.80,NNW,343,0.0,1.0,27,0.00,,SCT250,0.00,VWS V15.00,2015-05-29 08:38:00,
2015-05-29 01:43:00,76.3,38.9,29.80,NNW,342,0.0,1.0,26,0.00,,SCT250,0.00,VWS V15.00,2015-05-29 08:43:00,
2015-05-29 01:48:00,76.3,40.8,29.80,NNE,13,0.0,1.0,28,0.00,,SCT250,0.00,VWS V15.00,2015-05-29 08:48:00,
2015-05-29 01:53:00,75.9,40.5,29.80,NNE,13,0.0,1.0,28,0.00,,SCT250,0.00,VWS V15.00,2015-05-29 08:53:00,
2015-05-29 01:58:00,75.9,40.5,29.80,NNE,15,0.0,1.0,28,0.00,,SCT250,0.00,VWS V15.00,2015-05-29 08:58:00,
2015-05-29 02:03:00,75.7,40.3,29.80,NNE,15,0.0,0.0,28,0.00,,SCT250,0.00,VWS V15.00,2015-05-29 09:03:00,
2015-05-29 02:08:00,75.5,41.0,29.80,NNE,15,0.0,0.0,29,0.00,,SCT250,0.00,VWS V15.00,2015-05-29 09:08:00,
2015-05-29 02:13:00,75.3,41.8,29.80,NNE,15,0.0,0.0,30,0.00,,SCT250,0.00,VWS V15.00,2015-05-29 09:13:00,
2015-05-29 02:18:00,75.2,41.7,29.79,NE,48,0.0,1.0,30,0.00,,SCT250,0.00,VWS V15.00,2015-05-29 09:18:00,
2015-05-29 02:23:00,74.6,42.0,29.80,ENE,77,1.0,2.0,31,0.00,,SCT250,0.00,VWS V15.00,2015-05-29 09:23:00,
2015-05-29 02:28:00,74.4,42.7,29.79,ENE,63,0.0,2.0,32,0.00,,SCT250,0.00,VWS V15.00,2015-05-29 09:28:00,
2015-05-29 02:33:00,74.1,41.6,29.80,ENE,63,0.0,0.0,31,0.00,,SCT250,0.00,VWS V15.00,2015-05-29 09:33:00,
2015-05-29 02:38:00,73.9,40.5,29.80,ENE,63,0.0,0.0,30,0.00,,SCT250,0.00,VWS V15.00,2015-05-29 09:38:00,
2015-05-29 02:43:00,73.9,41.4,29.80,ENE,63,0.0,0.0,31,0.00,,SCT250,0.00,VWS V15.00,2015-05-29 09:43:00,
2015-05-29 02:48:00,74.1,42.4,29.80,ENE,62,1.0,2.0,32,0.00,,SCT250,0.00,VWS V15.00,2015-05-29 09:48:00,
2015-05-29 02:53:00,73.9,42.2,29.80,ENE,62,1.0,2.0,32,0.00,,SCT250,0.00,VWS V15.00,2015-05-29 09:53:00,
2015-05-29 02:58:00,73.5,43.4,29.80,ENE,63,0.0,2.0,34,0.00,,SCT250,0.00,VWS V15.00,2015-05-29 09:58:00,
2015-05-29 03:03:00,73.2,43.2,29.80,ENE,62,0.0,0.0,34,0.00,,SCT250,0.00,VWS V15.00,2015-05-29 10:03:00,
2015-05-29 03:08:00,72.9,42.1,29.80,ENE,63,0.0,0.0,33,0.00,,SCT250,0.00,VWS V15.00,2015-05-29 10:08:00,
2015-05-29 03:13:00,72.6,43.4,29.80,NNE,19,0.0,1.0,35,0.00,,SCT250,0.00,VWS V15.00,2015-05-29 10:13:00,
2015-05-29 03:18:00,72.4,43.2,29.80,NE,56,0.0,1.0,35,0.00,,SCT250,0.00,VWS V15.00,2015-05-29 10:18:00,
2015-05-29 03:23:00,72.1,44.4,29.80,NE,56,0.0,1.0,37,0.00,,SCT250,0.00,VWS V15.00,2015-05-29 10:23:00,
2015-05-29 03:28:00,71.5,44.6,29.80,ENE,67,0.0,1.0,38,0.00,,SCT250,0.00,VWS V15.00,2015-05-29 10:28:00,
2015-05-29 03:33:00,70.7,44.5,29.80,ENE,67,0.0,0.0,39,0.00,,SCT250,0.00,VWS V15.00,2015-05-29 10:33:00,
2015-05-29 03:38:00,69.7,43.7,29.80,ENE,67,0.0,0.0,39,0.00,,SCT250,0.00,VWS V15.00,2015-05-29 10:38:00,
2015-05-29 03:43:00,69.2,43.9,29.80,ENE,67,0.0,0.0,40,0.00,,SCT250,0.00,VWS V15.00,2015-05-29 10:43:00,
2015-05-29 03:48:00,68.6,44.0,29.80,ENE,67,0.0,0.0,41,0.00,,SCT250,0.00,VWS V15.00,2015-05-29 10:48:00,
2015-05-29 03:53:00,67.7,43.8,29.80,ENE,67,0.0,0.0,42,0.00,,SCT250,0.00,VWS V15.00,2015-05-29 10:53:00,
2015-05-29 03:58:00,68.1,44.2,29.81,North,360,0.0,1.0,42,0.00,,SCT250,0.00,VWS V15.00,2015-05-29 10:58:00,
2015-05-29 04:03:00,69.5,44.2,29.81,North,360,0.0,0.0,40,0.00,,SCT250,0.00,VWS V15.00,2015-05-29 11:03:00,
2015-05-29 04:08:00,70.2,45.4,29.81,North,1,0.0,1.0,41,0.00,,SCT250,0.00,VWS V15.00,2015-05-29 11:08:00,
2015-05-29 04:13:00,70.2,44.8,29.81,ENE,78,0.0,1.0,40,0.00,,SCT250,0.00,VWS V15.00,2015-05-29 11:13:00,
2015-05-29 04:18:00,69.7,44.3,29.81,ENE,71,0.0,1.0,40,0.00,,SCT250,0.00,VWS V15.00,2015-05-29 11:18:00,
2015-05-29 04:23:00,69.4,44.1,29.81,ENE,71,0.0,1.0,40,0.00,,SCT250,0.00,VWS V15.00,2015-05-29 11:23:00,
2015-05-29 04:28:00,69.5,43.5,29.81,ENE,71,0.0,1.0,39,0.00,,SCT250,0.00,VWS V15.00,2015-05-29 11:28:00,
2015-05-29 04:33:00,69.9,43.8,29.81,NE,56,0.0,1.0,39,0.00,,SCT250,0.00,VWS V15.00,2015-05-29 11:33:00,
2015-05-29 04:38:00,70.2,43.4,29.81,ENE,57,0.0,1.0,38,0.00,,SCT250,0.00,VWS V15.00,2015-05-29 11:38:00,
2015-05-29 04:43:00,70.1,42.7,29.81,ENE,57,0.0,1.0,37,0.00,,SCT250,0.00,VWS V15.00,2015-05-29 11:43:00,
2015-05-29 04:48:00,69.8,42.4,29.81,North,11,0.0,1.0,37,0.00,,SCT250,0.00,VWS V15.00,2015-05-29 11:48:00,
2015-05-29 04:53:00,69.6,41.5,29.82,North,9,0.0,1.0,36,0.00,,SCT250,0.00,VWS V15.00,2015-05-29 11:53:00,
2015-05-29 04:58:00,69.3,41.9,29.82,North,9,0.0,1.0,37,0.00,,SCT250,0.00,VWS V15.00,2015-05-29 11:58:00,
2015-05-29 05:03:00,68.9,41.6,29.82,North,9,0.0,0.0,37,0.00,,SCT250,0.00,VWS V15.00,2015-05-29 12:03:00,
2015-05-29 05:08:00,68.4,41.8,29.82,North,11,0.0,0.0,38,0.00,,SCT250,0.00,VWS V15.00,2015-05-29 12:08:00,
2015-05-29 05:13:00,68.7,40.7,29.82,East,94,1.0,1.0,36,0.00,,SCT250,0.00,VWS V15.00,2015-05-29 12:13:00,
2015-05-29 05:18:00,69.7,41.6,29.83,NE,36,0.0,1.0,36,0.00,,SCT250,0.00,VWS V15.00,2015-05-29 12:18:00,
2015-05-29 05:23:00,69.6,41.5,29.83,East,98,0.0,1.0,36,0.00,,SCT250,0.00,VWS V15.00,2015-05-29 12:23:00,
2015-05-29 05:28:00,69.8,41.7,29.83,East,94,0.0,1.0,36,0.00,,SCT250,0.00,VWS V15.00,2015-05-29 12:28:00,
2015-05-29 05:33:00,70.2,42.0,29.83,East,84,0.0,1.0,36,0.00,,SCT250,0.00,VWS V15.00,2015-05-29 12:33:00,
2015-05-29 05:38:00,70.3,42.1,29.83,ESE,113,0.0,1.0,36,0.00,,SCT250,0.00,VWS V15.00,2015-05-29 12:38:00,
2015-05-29 05:43:00,70.8,41.8,29.84,ESE,113,0.0,1.0,35,0.00,,SCT250,0.00,VWS V15.00,2015-05-29 12:43:00,
2015-05-29 05:48:00,71.6,42.5,29.84,ESE,113,0.0,1.0,35,0.00,,SCT250,0.00,VWS V15.00,2015-05-29 12:48:00,
2015-05-29 05:53:00,72.4,42.5,29.84,ESE,112,0.0,1.0,34,0.00,,SCT250,0.00,VWS V15.00,2015-05-29 12:53:00,
2015-05-29 05:58:00,72.6,42.7,29.85,East,80,1.0,1.0,34,0.00,,SCT250,0.00,VWS V15.00,2015-05-29 12:58:00,
2015-05-29 06:03:00,72.5,43.3,29.85,ENE,67,0.0,1.0,35,0.00,,SCT250,0.00,VWS V15.00,2015-05-29 13:03:00,
2015-05-29 06:08:00,72.6,42.7,29.85,ENE,77,2.0,2.0,34,0.00,,SCT250,0.00,VWS V15.00,2015-05-29 13:08:00,
2015-05-29 06:13:00,73.1,40.7,29.85,East,96,2.0,3.0,31,0.00,,SCT250,0.00,VWS V15.00,2015-05-29 13:13:00,
2015-05-29 06:18:00,73.7,40.4,29.85,ESE,105,2.0,3.0,30,0.00,,SCT250,0.00,VWS V15.00,2015-05-29 13:18:00,
2015-05-29 06:23:00,74.2,40.8,29.85,East,82,0.0,3.0,30,0.00,,SCT250,0.00,VWS V15.00,2015-05-29 13:23:00,
2015-05-29 06:28:00,74.8,39.5,29.85,East,84,1.0,3.0,28,0.00,,SCT250,0.00,VWS V15.00,2015-05-29 13:28:00,
2015-05-29 06:33:00,75.4,40.1,29.86,East,82,2.0,2.0,28,0.00,,SCT250,0.00,VWS V15.00,2015-05-29 13:33:00,
2015-05-29 06:38:00,76.2,39.8,29.86,ENE,70,1.0,2.0,27,0.00,,SCT250,0.00,VWS V15.00,2015-05-29 13:38:00,
2015-05-29 06:43:00,76.7,39.3,29.86,ENE,71,2.0,4.0,26,0.00,,SCT250,0.00,VWS V15.00,2015-05-29 13:43:00,
2015-05-29 06:48:00,77.2,39.7,29.86,ESE,112,1.0,4.0,26,0.00,,SCT250,0.00,VWS V15.00,2015-05-29 13:48:00,
2015-05-29 06:53:00,77.6,39.0,29.86,East,96,1.0,4.0,25,0.00,,SCT250,0.00,VWS V15.00,2015-05-29 13:53:00,
2015-05-29 06:58:00,78.3,39.6,29.86,East,80,0.0,4.0,25,0.00,,SCT250,0.00,VWS V15.00,2015-05-29 13:58:00,
2015-05-29 07:03:00,78.9,39.1,29.86,East,101,1.0,2.0,24,0.00,,SCT250,0.00,VWS V15.00,2015-05-29 14:03:00,
2015-05-29 07:08:00,79.1,38.2,29.86,East,79,1.0,3.0,23,0.00,,SCT250,0.00,VWS V15.00,2015-05-29 14:08:00,
2015-05-29 07:13:00,79.1,38.2,29.86,East,83,2.0,6.0,23,0.00,,SCT250,0.00,VWS V15.00,2015-05-29 14:13:00,
2015-05-29 07:18:00,79.0,38.1,29.87,ENE,77,1.0,6.0,23,0.00,,SCT250,0.00,VWS V15.00,2015-05-29 14:18:00,
2015-05-29 07:23:00,79.4,38.4,29.87,East,86,0.0,6.0,23,0.00,,SCT250,0.00,VWS V15.00,2015-05-29 14:23:00,
2015-05-29 07:28:00,80.1,39.0,29.87,East,99,1.0,6.0,23,0.00,,SCT250,0.00,VWS V15.00,2015-05-29 14:28:00,
2015-05-29 07:33:00,80.1,39.0,29.87,ENE,68,2.0,3.0,23,0.00,,SCT250,0.00,VWS V15.00,2015-05-29 14:33:00,
2015-05-29 07:38:00,80.9,39.7,29.87,WSW,255,0.0,3.0,23,0.00,,SCT250,0.00,VWS V15.00,2015-05-29 14:38:00,
2015-05-29 07:43:00,81.3,37.7,29.87,ESE,115,3.0,4.0,21,0.00,,SCT250,0.00,VWS V15.00,2015-05-29 14:43:00,
2015-05-29 07:48:00,81.2,38.8,29.87,NNW,328,0.0,4.0,22,0.00,,SCT250,0.00,VWS V15.00,2015-05-29 14:48:00,
2015-05-29 07:53:00,82.6,38.8,29.87,ESE,116,0.0,4.0,21,0.00,,SCT250,0.00,VWS V15.00,2015-05-29 14:53:00,
2015-05-29 07:58:00,83.7,39.7,29.87,SSE,155,0.0,4.0,21,0.00,,SCT250,0.00,VWS V15.00,2015-05-29 14:58:00,
2015-05-29 08:03:00,85.1,39.6,29.87,SE,136,0.0,0.0,20,0.00,,SCT250,0.00,VWS V15.00,2015-05-29 15:03:00,
2015-05-29 08:08:00,85.7,38.7,29.87,SE,142,1.0,1.0,19,0.00,,SCT250,0.00,VWS V15.00,2015-05-29 15:08:00,
2015-05-29 08:13:00,86.3,40.5,29.88,East,84,2.0,2.0,20,0.00,,SCT250,0.00,VWS V15.00,2015-05-29 15:13:00,
2015-05-29 08:18:00,86.2,39.2,29.88,East,90,1.0,2.0,19,0.00,,SCT250,0.00,VWS V15.00,2015-05-29 15:18:00,
2015-05-29 08:23:00,86.1,39.1,29.88,ESE,102,0.0,2.0,19,0.00,,SCT250,0.00,VWS V15.00,2015-05-29 15:23:00,
2015-05-29 08:28:00,86.6,39.5,29.87,NW,325,0.0,2.0,19,0.00,,SCT250,0.00,VWS V15.00,2015-05-29 15:28:00,
2015-05-29 08:33:00,87.5,40.2,29.87,SSE,149,0.0,0.0,19,0.00,,SCT250,0.00,VWS V15.00,2015-05-29 15:33:00,
2015-05-29 08:38:00,88.3,40.9,29.88,WSW,249,0.0,1.0,19,0.00,,SCT250,0.00,VWS V15.00,2015-05-29 15:38:00,
2015-05-29 08:43:00,88.7,39.8,29.88,SE,127,2.0,3.0,18,0.00,,SCT250,0.00,VWS V15.00,2015-05-29 15:43:00,
2015-05-29 08:48:00,88.0,39.2,29.88,NE,47,1.0,3.0,18,0.00,,SCT250,0.00,VWS V15.00,2015-05-29 15:48:00,
2015-05-29 08:53:00,88.1,39.3,29.88,East,101,1.0,3.0,18,0.00,,SCT250,0.00,VWS V15.00,2015-05-29 15:53:00,
2015-05-29 08:58:00,88.7,39.8,29.88,NNW,348,1.0,3.0,18,0.00,,SCT250,0.00,VWS V15.00,2015-05-29 15:58:00,
2015-05-29 09:03:00,88.8,39.9,29.88,NW,305,0.0,2.0,18,0.00,,SCT250,0.00,VWS V15.00,2015-05-29 16:03:00,
2015-05-29 09:08:00,89.9,39.3,29.88,East,87,1.0,2.0,17,0.00,,SCT250,0.00,VWS V15.00,2015-05-29 16:08:00,
2015-05-29 09:13:00,90.4,39.7,29.88,East,89,3.0,4.0,17,0.00,,SCT250,0.00,VWS V15.00,2015-05-29 16:13:00,
2015-05-29 09:18:00,88.9,38.5,29.88,SW,226,2.0,4.0,17,0.00,,SCT250,0.00,VWS V15.00,2015-05-29 16:18:00,
2015-05-29 09:23:00,89.9,39.3,29.88,ENE,64,1.0,4.0,17,0.00,,SCT250,0.00,VWS V15.00,2015-05-29 16:23:00,
2015-05-29 09:28:00,89.5,37.4,29.88,ESE,108,0.0,4.0,16,0.00,,SCT250,0.00,VWS V15.00,2015-05-29 16:28:00,
2015-05-29 09:33:00,90.2,38.0,29.88,ESE,113,0.0,1.0,16,0.00,,SCT250,0.00,VWS V15.00,2015-05-29 16:33:00,
2015-05-29 09:38:00,91.5,39.0,29.88,SSE,166,0.0,3.0,16,0.00,,SCT250,0.00,VWS V15.00,2015-05-29 16:38:00,
2015-05-29 09:43:00,92.7,38.3,29.88,East,91,2.0,3.0,15,0.00,,SCT250,0.00,VWS V15.00,2015-05-29 16:43:00,
2015-05-29 09:48:00,91.0,37.0,29.87,East,97,0.0,3.0,15,0.00,,SCT250,0.00,VWS V15.00,2015-05-29 16:48:00,
2015-05-29 09:53:00,90.8,36.8,29.87,SE,141,0.0,3.0,15,0.00,,SCT250,0.00,VWS V15.00,2015-05-29 16:53:00,
2015-05-29 09:58:00,91.6,37.5,29.87,NW,304,2.0,3.0,15,0.00,,SCT250,0.00,VWS V15.00,2015-05-29 16:58:00,
2015-05-29 10:03:00,91.9,37.7,29.87,SSW,201,2.0,3.0,15,0.00,,SCT250,0.00,VWS V15.00,2015-05-29 17:03:00,
2015-05-29 10:08:00,92.5,38.2,29.87,West,280,4.0,4.0,15,0.00,,SCT250,0.00,VWS V15.00,2015-05-29 17:08:00,
2015-05-29 10:13:00,92.5,38.2,29.87,WNW,291,2.0,5.0,15,0.00,,SCT250,0.00,VWS V15.00,2015-05-29 17:13:00,
2015-05-29 10:18:00,92.3,38.0,29.87,WSW,249,2.0,5.0,15,0.00,,SCT250,0.00,VWS V15.00,2015-05-29 17:18:00,
2015-05-29 10:23:00,92.2,37.9,29.87,West,281,0.0,6.0,15,0.00,,SCT250,0.00,VWS V15.00,2015-05-29 17:23:00,
2015-05-29 10:28:00,92.7,38.3,29.87,WNW,301,3.0,6.0,15,0.00,,SCT250,0.00,VWS V15.00,2015-05-29 17:28:00,
2015-05-29 10:33:00,93.1,38.7,29.87,West,276,2.0,2.0,15,0.00,,SCT250,0.00,VWS V15.00,2015-05-29 17:33:00,
2015-05-29 10:38:00,94.1,37.7,29.87,West,268,3.0,4.0,14,0.00,,SCT250,0.00,VWS V15.00,2015-05-29 17:38:00,
2015-05-29 10:43:00,93.8,39.2,29.88,West,266,3.0,6.0,15,0.00,,SCT250,0.00,VWS V15.00,2015-05-29 17:43:00,
2015-05-29 10:48:00,93.8,37.5,29.88,ENE,66,2.0,6.0,14,0.00,,SCT250,0.00,VWS V15.00,2015-05-29 17:48:00,
2015-05-29 10:53:00,94.7,38.2,29.87,SSW,201,0.0,6.0,14,0.00,,SCT250,0.00,VWS V15.00,2015-05-29 17:53:00,
2015-05-29 10:58:00,95.6,38.9,29.87,SSW,210,2.0,6.0,14,0.00,,SCT250,0.00,VWS V15.00,2015-05-29 17:58:00,
2015-05-29 11:03:00,95.9,39.1,29.87,SSW,208,1.0,4.0,14,0.00,,SCT250,0.00,VWS V15.00,2015-05-29 18:03:00,
2015-05-29 11:08:00,96.4,39.5,29.86,SW,225,0.0,4.0,14,0.00,,SCT250,0.00,VWS V15.00,2015-05-29 18:08:00,
2015-05-29 11:13:00,96.5,39.6,29.86,WNW,285,1.0,4.0,14,0.00,,SCT250,0.00,VWS V15.00,2015-05-29 18:13:00,
2015-05-29 11:18:00,96.3,37.5,29.86,West,269,1.0,6.0,13,0.00,,SCT250,0.00,VWS V15.00,2015-05-29 18:18:00,
2015-05-29 11:23:00,96.4,35.6,29.86,West,281,2.0,6.0,12,0.00,,SCT250,0.00,VWS V15.00,2015-05-29 18:23:00,
2015-05-29 11:28:00,96.5,35.7,29.85,East,79,1.0,6.0,12,0.00,,SCT250,0.00,VWS V15.00,2015-05-29 18:28:00,
2015-05-29 11:33:00,96.8,33.7,29.86,WSW,242,1.0,4.0,11,0.00,,SCT250,0.00,VWS V15.00,2015-05-29 18:33:00,
2015-05-29 11:38:00,97.9,34.5,29.85,WSW,256,1.0,4.0,11,0.00,,SCT250,0.00,VWS V15.00,2015-05-29 18:38:00,
2015-05-29 11:43:00,98.5,35.0,29.85,WSW,238,0.0,4.0,11,0.00,,SCT250,0.00,VWS V15.00,2015-05-29 18:43:00,
2015-05-29 11:48:00,98.2,37.0,29.85,NNW,329,3.0,6.0,12,0.00,,SCT250,0.00,VWS V15.00,2015-05-29 18:48:00,
2015-05-29 11:53:00,97.5,34.2,29.84,West,266,2.0,7.0,11,0.00,,SCT250,0.00,VWS V15.00,2015-05-29 18:53:00,
2015-05-29 11:58:00,97.8,34.5,29.84,SE,129,1.0,7.0,11,0.00,,SCT250,0.00,VWS V15.00,2015-05-29 18:58:00,
2015-05-29 12:03:00,98.4,34.9,29.84,SW,215,1.0,3.0,11,0.00,,SCT250,0.00,VWS V15.00,2015-05-29 19:03:00,
2015-05-29 12:08:00,98.4,37.1,29.84,NW,317,2.0,6.0,12,0.00,,SCT250,0.00,VWS V15.00,2015-05-29 19:08:00,
2015-05-29 12:13:00,98.4,37.1,29.84,NW,315,5.0,7.0,12,0.00,,SCT250,0.00,VWS V15.00,2015-05-29 19:13:00,
2015-05-29 12:18:00,98.3,37.0,29.84,WNW,287,3.0,7.0,12,0.00,,SCT250,0.00,VWS V15.00,2015-05-29 19:18:00,
2015-05-29 12:23:00,98.5,37.2,29.84,NW,305,6.0,8.0,12,0.00,,SCT250,0.00,VWS V15.00,2015-05-29 19:23:00,
2015-05-29 12:28:00,98.3,34.8,29.84,NW,308,2.0,8.0,11,0.00,,SCT250,0.00,VWS V15.00,2015-05-29 19:28:00,
2015-05-29 12:33:00,98.8,35.2,29.83,NW,304,2.0,7.0,11,0.00,,SCT250,0.00,VWS V15.00,2015-05-29 19:33:00,
2015-05-29 12:38:00,99.0,35.4,29.83,West,278,4.0,7.0,11,0.00,,SCT250,0.00,VWS V15.00,2015-05-29 19:38:00,
2015-05-29 12:43:00,99.5,35.8,29.83,WNW,287,3.0,7.0,11,0.00,,SCT250,0.00,VWS V15.00,2015-05-29 19:43:00,
2015-05-29 12:48:00,99.4,33.3,29.83,NW,313,3.0,7.0,10,0.00,,SCT250,0.00,VWS V15.00,2015-05-29 19:48:00,
2015-05-29 12:53:00,99.5,33.4,29.83,NW,304,3.0,7.0,10,0.00,,SCT250,0.00,VWS V15.00,2015-05-29 19:53:00,
2015-05-29 12:58:00,99.8,33.6,29.82,NW,315,1.0,7.0,10,0.00,,SCT250,0.00,VWS V15.00,2015-05-29 19:58:00,
2015-05-29 13:03:00,100.1,31.2,29.82,West,276,7.0,8.0,9,0.00,,SCT250,0.00,VWS V15.00,2015-05-29 20:03:00,
2015-05-29 13:08:00,99.7,30.9,29.82,WNW,302,1.0,8.0,9,0.00,,SCT250,0.00,VWS V15.00,2015-05-29 20:08:00,
2015-05-29 13:13:00,99.5,30.8,29.81,WNW,285,5.0,8.0,9,0.00,,SCT250,0.00,VWS V15.00,2015-05-29 20:13:00,
2015-05-29 13:18:00,99.2,30.5,29.81,WNW,301,4.0,8.0,9,0.00,,SCT250,0.00,VWS V15.00,2015-05-29 20:18:00,
2015-05-29 13:23:00,99.9,31.0,29.81,NW,319,3.0,8.0,9,0.00,,SCT250,0.00,VWS V15.00,2015-05-29 20:23:00,
2015-05-29 13:28:00,99.7,30.9,29.81,NE,40,2.0,8.0,9,0.00,,SCT250,0.00,VWS V15.00,2015-05-29 20:28:00,